Appleyard, Washington
Current Conditions -  °F | °C
As of 1:55 AM on Monday 20 Oct 2014 (Local Time) from KEAT Reporting Station
Broken Clouds Broken Clouds  
Wind Chill: 54°   Ceiling: 10000
Heat Index: 54°   Visibility: 10mi
Dew Point: 48°   Wind: 12mph
Humidity: 80%   Direction: 290°WNW
Pressure: 29.73"   Gusts: NA
Location:  47.3635°N, 120.348°W
Report Text: KEAT 200855Z AUTO 29010KT 10SM BKN100 12/09 A2973 RMK AO2 SLP065 T01220089 56006
Loading
Personal Weather Stations






























Interactive Weather Map
Tropical Storm Tracking
New forecast layout! Learn more

10-Day Weather Forecast

Advertisements
Track Severe Weather on mobile